sensor_id;sensor_type;location;lat;lon;timestamp;P1;durP1;ratioP1;P2;durP2;ratioP2
54201;SDS011;40108;53.152;5.844;2022-09-03T00:01:26;7.85;;;0.80;;
54201;SDS011;40108;53.152;5.844;2022-09-03T00:04:21;3.10;;;0.80;;
54201;SDS011;40108;53.152;5.844;2022-09-03T00:07:02;2.08;;;0.60;;
54201;SDS011;40108;53.152;5.844;2022-09-03T00:09:40;2.88;;;0.63;;
54201;SDS011;40108;53.152;5.844;2022-09-03T00:12:18;3.92;;;0.90;;
54201;SDS011;40108;53.152;5.844;2022-09-03T00:14:57;4.90;;;0.60;;
54201;SDS011;40108;53.152;5.844;2022-09-03T00:17:35;4.50;;;0.73;;
54201;SDS011;40108;53.152;5.844;2022-09-03T00:20:27;2.72;;;0.70;;
54201;SDS011;40108;53.152;5.844;2022-09-03T00:22:54;2.90;;;0.85;;
54201;SDS011;40108;53.152;5.844;2022-09-03T00:25:28;1.52;;;0.60;;
54201;SDS011;40108;53.152;5.844;2022-09-03T00:28:03;2.75;;;0.68;;
54201;SDS011;40108;53.152;5.844;2022-09-03T00:30:33;2.70;;;0.60;;
54201;SDS011;40108;53.152;5.844;2022-09-03T00:35:37;4.03;;;0.88;;
54201;SDS011;40108;53.152;5.844;2022-09-03T00:38:11;0.70;;;0.60;;
54201;SDS011;40108;53.152;5.844;2022-09-03T00:53:38;3.75;;;0.77;;
54201;SDS011;40108;53.152;5.844;2022-09-03T00:56:21;1.63;;;0.55;;
54201;SDS011;40108;53.152;5.844;2022-09-03T00:59:02;1.27;;;0.80;;
54201;SDS011;40108;53.152;5.844;2022-09-03T01:01:59;2.63;;;0.73;;
54201;SDS011;40108;53.152;5.844;2022-09-03T01:10:29;2.75;;;0.73;;
54201;SDS011;40108;53.152;5.844;2022-09-03T01:16:00;2.72;;;0.75;;
54201;SDS011;40108;53.152;5.844;2022-09-03T01:18:34;6.45;;;0.77;;
54201;SDS011;40108;53.152;5.844;2022-09-03T01:21:30;1.85;;;0.60;;
54201;SDS011;40108;53.152;5.844;2022-09-03T01:24:38;3.15;;;0.55;;
54201;SDS011;40108;53.152;5.844;2022-09-03T01:32:46;2.78;;;0.60;;
54201;SDS011;40108;53.152;5.844;2022-09-03T01:35:35;3.78;;;0.60;;
54201;SDS011;40108;53.152;5.844;2022-09-03T01:43:20;4.40;;;1.17;;
54201;SDS011;40108;53.152;5.844;2022-09-03T01:46:12;3.92;;;0.50;;
54201;SDS011;40108;53.152;5.844;2022-09-03T01:51:18;1.17;;;0.63;;
54201;SDS011;40108;53.152;5.844;2022-09-03T01:53:59;3.65;;;0.70;;
54201;SDS011;40108;53.152;5.844;2022-09-03T01:56:42;2.90;;;0.50;;
54201;SDS011;40108;53.152;5.844;2022-09-03T01:59:34;4.53;;;0.63;;
54201;SDS011;40108;53.152;5.844;2022-09-03T02:02:25;3.40;;;0.60;;
54201;SDS011;40108;53.152;5.844;2022-09-03T02:05:02;5.60;;;0.70;;
54201;SDS011;40108;53.152;5.844;2022-09-03T02:07:33;1.80;;;0.77;;
54201;SDS011;40108;53.152;5.844;2022-09-03T02:10:01;0.90;;;0.63;;
54201;SDS011;40108;53.152;5.844;2022-09-03T02:12:28;2.22;;;0.52;;
54201;SDS011;40108;53.152;5.844;2022-09-03T02:15:01;4.57;;;0.80;;
54201;SDS011;40108;53.152;5.844;2022-09-03T02:17:31;2.70;;;0.75;;
54201;SDS011;40108;53.152;5.844;2022-09-03T02:19:57;3.38;;;0.50;;
54201;SDS011;40108;53.152;5.844;2022-09-03T02:22:27;1.27;;;0.70;;
54201;SDS011;40108;53.152;5.844;2022-09-03T02:24:53;1.42;;;0.60;;
54201;SDS011;40108;53.152;5.844;2022-09-03T02:27:19;4.00;;;0.82;;
54201;SDS011;40108;53.152;5.844;2022-09-03T02:29:45;4.72;;;0.50;;
54201;SDS011;40108;53.152;5.844;2022-09-03T02:32:11;3.17;;;0.60;;
54201;SDS011;40108;53.152;5.844;2022-09-03T02:34:40;3.72;;;0.55;;
54201;SDS011;40108;53.152;5.844;2022-09-03T02:37:15;3.65;;;0.43;;
54201;SDS011;40108;53.152;5.844;2022-09-03T02:39:42;1.20;;;0.65;;
54201;SDS011;40108;53.152;5.844;2022-09-03T02:42:09;2.30;;;0.60;;
54201;SDS011;40108;53.152;5.844;2022-09-03T02:44:37;2.15;;;0.65;;
54201;SDS011;40108;53.152;5.844;2022-09-03T02:47:12;1.17;;;0.52;;
54201;SDS011;40108;53.152;5.844;2022-09-03T02:49:39;3.17;;;0.70;;
54201;SDS011;40108;53.152;5.844;2022-09-03T02:52:06;3.40;;;0.52;;
54201;SDS011;40108;53.152;5.844;2022-09-03T02:54:34;4.55;;;0.65;;
54201;SDS011;40108;53.152;5.844;2022-09-03T02:57:07;2.20;;;0.50;;
54201;SDS011;40108;53.152;5.844;2022-09-03T02:59:34;2.85;;;0.68;;
54201;SDS011;40108;53.152;5.844;2022-09-03T03:02:01;5.22;;;0.90;;
54201;SDS011;40108;53.152;5.844;2022-09-03T03:04:28;2.17;;;0.98;;
54201;SDS011;40108;53.152;5.844;2022-09-03T03:06:54;3.67;;;0.70;;
54201;SDS011;40108;53.152;5.844;2022-09-03T03:09:20;2.85;;;0.88;;
54201;SDS011;40108;53.152;5.844;2022-09-03T03:11:46;4.88;;;0.75;;
54201;SDS011;40108;53.152;5.844;2022-09-03T03:14:14;1.60;;;0.50;;
54201;SDS011;40108;53.152;5.844;2022-09-03T03:16:41;3.47;;;0.70;;
54201;SDS011;40108;53.152;5.844;2022-09-03T03:19:06;4.22;;;0.80;;
54201;SDS011;40108;53.152;5.844;2022-09-03T03:21:32;2.05;;;0.70;;
54201;SDS011;40108;53.152;5.844;2022-09-03T03:23:59;3.15;;;0.85;;
54201;SDS011;40108;53.152;5.844;2022-09-03T03:26:25;1.73;;;0.70;;
54201;SDS011;40108;53.152;5.844;2022-09-03T03:28:54;1.10;;;0.75;;
54201;SDS011;40108;53.152;5.844;2022-09-03T03:31:22;1.75;;;0.50;;
54201;SDS011;40108;53.152;5.844;2022-09-03T03:33:55;3.83;;;0.70;;
54201;SDS011;40108;53.152;5.844;2022-09-03T03:36:23;2.30;;;0.63;;
54201;SDS011;40108;53.152;5.844;2022-09-03T03:38:55;3.13;;;0.90;;
54201;SDS011;40108;53.152;5.844;2022-09-03T03:41:23;1.08;;;0.65;;
54201;SDS011;40108;53.152;5.844;2022-09-03T03:44:00;3.88;;;0.73;;
54201;SDS011;40108;53.152;5.844;2022-09-03T03:46:29;2.90;;;0.70;;
54201;SDS011;40108;53.152;5.844;2022-09-03T03:48:56;1.08;;;0.70;;
54201;SDS011;40108;53.152;5.844;2022-09-03T03:51:24;3.88;;;0.50;;
54201;SDS011;40108;53.152;5.844;2022-09-03T03:53:52;2.17;;;0.50;;
54201;SDS011;40108;53.152;5.844;2022-09-03T03:56:19;3.08;;;0.73;;
54201;SDS011;40108;53.152;5.844;2022-09-03T03:58:45;4.40;;;0.60;;
54201;SDS011;40108;53.152;5.844;2022-09-03T04:01:16;1.80;;;0.75;;
54201;SDS011;40108;53.152;5.844;2022-09-03T04:03:44;1.23;;;0.60;;
54201;SDS011;40108;53.152;5.844;2022-09-03T04:06:12;2.67;;;0.65;;
54201;SDS011;40108;53.152;5.844;2022-09-03T04:08:40;3.97;;;0.70;;
54201;SDS011;40108;53.152;5.844;2022-09-03T04:11:08;2.50;;;0.60;;
54201;SDS011;40108;53.152;5.844;2022-09-03T04:13:37;3.75;;;1.00;;
54201;SDS011;40108;53.152;5.844;2022-09-03T04:16:05;1.33;;;0.60;;
54201;SDS011;40108;53.152;5.844;2022-09-03T04:18:34;1.95;;;0.60;;
54201;SDS011;40108;53.152;5.844;2022-09-03T04:21:04;3.83;;;0.90;;
54201;SDS011;40108;53.152;5.844;2022-09-03T04:23:42;2.10;;;0.80;;
54201;SDS011;40108;53.152;5.844;2022-09-03T04:26:10;2.90;;;0.70;;
54201;SDS011;40108;53.152;5.844;2022-09-03T04:28:37;1.77;;;0.63;;
54201;SDS011;40108;53.152;5.844;2022-09-03T04:31:05;1.42;;;0.60;;
54201;SDS011;40108;53.152;5.844;2022-09-03T04:33:33;2.55;;;0.68;;
54201;SDS011;40108;53.152;5.844;2022-09-03T04:36:07;5.80;;;0.85;;
54201;SDS011;40108;53.152;5.844;2022-09-03T04:38:33;2.67;;;0.60;;
54201;SDS011;40108;53.152;5.844;2022-09-03T04:41:01;4.30;;;0.68;;
54201;SDS011;40108;53.152;5.844;2022-09-03T04:43:27;2.53;;;0.70;;
54201;SDS011;40108;53.152;5.844;2022-09-03T04:46:00;5.55;;;0.60;;
54201;SDS011;40108;53.152;5.844;2022-09-03T04:48:28;2.38;;;0.88;;
54201;SDS011;40108;53.152;5.844;2022-09-03T04:51:02;1.92;;;0.77;;
54201;SDS011;40108;53.152;5.844;2022-09-03T04:53:33;1.33;;;0.65;;
54201;SDS011;40108;53.152;5.844;2022-09-03T04:56:01;2.42;;;0.73;;
54201;SDS011;40108;53.152;5.844;2022-09-03T04:58:27;1.67;;;0.60;;
54201;SDS011;40108;53.152;5.844;2022-09-03T05:00:53;4.10;;;0.70;;
54201;SDS011;40108;53.152;5.844;2022-09-03T05:03:19;0.93;;;0.73;;
54201;SDS011;40108;53.152;5.844;2022-09-03T05:05:55;2.65;;;0.60;;
54201;SDS011;40108;53.152;5.844;2022-09-03T05:08:21;1.17;;;0.70;;
54201;SDS011;40108;53.152;5.844;2022-09-03T05:10:47;3.03;;;0.70;;
54201;SDS011;40108;53.152;5.844;2022-09-03T05:13:13;2.20;;;0.80;;
54201;SDS011;40108;53.152;5.844;2022-09-03T05:15:39;3.45;;;0.70;;
54201;SDS011;40108;53.152;5.844;2022-09-03T05:18:06;0.77;;;0.70;;
54201;SDS011;40108;53.152;5.844;2022-09-03T05:20:31;4.57;;;0.73;;
54201;SDS011;40108;53.152;5.844;2022-09-03T05:23:00;2.55;;;0.90;;
54201;SDS011;40108;53.152;5.844;2022-09-03T05:25:30;2.20;;;0.77;;
54201;SDS011;40108;53.152;5.844;2022-09-03T05:27:59;4.32;;;0.90;;
54201;SDS011;40108;53.152;5.844;2022-09-03T05:30:26;2.78;;;0.80;;
54201;SDS011;40108;53.152;5.844;2022-09-03T05:32:51;2.72;;;0.73;;
54201;SDS011;40108;53.152;5.844;2022-09-03T05:35:17;2.33;;;0.90;;
54201;SDS011;40108;53.152;5.844;2022-09-03T05:37:43;1.13;;;0.50;;
54201;SDS011;40108;53.152;5.844;2022-09-03T05:40:09;3.25;;;0.65;;
54201;SDS011;40108;53.152;5.844;2022-09-03T05:42:36;1.80;;;0.80;;
54201;SDS011;40108;53.152;5.844;2022-09-03T05:45:04;1.60;;;0.80;;
54201;SDS011;40108;53.152;5.844;2022-09-03T05:47:35;3.30;;;0.80;;
54201;SDS011;40108;53.152;5.844;2022-09-03T05:50:04;1.25;;;0.70;;
54201;SDS011;40108;53.152;5.844;2022-09-03T05:52:34;3.10;;;0.98;;
54201;SDS011;40108;53.152;5.844;2022-09-03T05:55:01;3.00;;;0.90;;
54201;SDS011;40108;53.152;5.844;2022-09-03T05:57:27;1.30;;;0.77;;
54201;SDS011;40108;53.152;5.844;2022-09-03T05:59:54;4.05;;;0.90;;
54201;SDS011;40108;53.152;5.844;2022-09-03T06:02:20;2.55;;;0.80;;
54201;SDS011;40108;53.152;5.844;2022-09-03T06:04:47;0.80;;;0.70;;
54201;SDS011;40108;53.152;5.844;2022-09-03T06:07:13;0.88;;;0.68;;
54201;SDS011;40108;53.152;5.844;2022-09-03T06:09:39;1.65;;;0.80;;
54201;SDS011;40108;53.152;5.844;2022-09-03T06:12:05;4.32;;;1.50;;
54201;SDS011;40108;53.152;5.844;2022-09-03T06:14:31;2.10;;;0.80;;
54201;SDS011;40108;53.152;5.844;2022-09-03T06:16:57;2.42;;;1.00;;
54201;SDS011;40108;53.152;5.844;2022-09-03T06:19:23;2.55;;;0.82;;
54201;SDS011;40108;53.152;5.844;2022-09-03T06:21:48;2.72;;;0.90;;
54201;SDS011;40108;53.152;5.844;2022-09-03T06:24:18;4.55;;;0.90;;
54201;SDS011;40108;53.152;5.844;2022-09-03T06:26:47;2.47;;;0.90;;
54201;SDS011;40108;53.152;5.844;2022-09-03T06:29:13;2.75;;;0.90;;
54201;SDS011;40108;53.152;5.844;2022-09-03T06:31:38;5.18;;;1.00;;
54201;SDS011;40108;53.152;5.844;2022-09-03T06:34:04;2.03;;;0.90;;
54201;SDS011;40108;53.152;5.844;2022-09-03T06:36:30;4.63;;;0.60;;
54201;SDS011;40108;53.152;5.844;2022-09-03T06:38:57;3.03;;;0.80;;
54201;SDS011;40108;53.152;5.844;2022-09-03T06:41:24;2.95;;;1.10;;
54201;SDS011;40108;53.152;5.844;2022-09-03T06:43:52;2.83;;;1.00;;
54201;SDS011;40108;53.152;5.844;2022-09-03T06:46:28;8.82;;;1.02;;
54201;SDS011;40108;53.152;5.844;2022-09-03T06:48:55;3.15;;;1.00;;
54201;SDS011;40108;53.152;5.844;2022-09-03T06:51:22;3.83;;;1.10;;
54201;SDS011;40108;53.152;5.844;2022-09-03T06:53:57;3.47;;;0.88;;
54201;SDS011;40108;53.152;5.844;2022-09-03T06:56:24;5.25;;;1.38;;
54201;SDS011;40108;53.152;5.844;2022-09-03T06:58:51;3.47;;;1.00;;
54201;SDS011;40108;53.152;5.844;2022-09-03T07:01:28;9.50;;;1.80;;
54201;SDS011;40108;53.152;5.844;2022-09-03T07:03:59;1.17;;;0.88;;
54201;SDS011;40108;53.152;5.844;2022-09-03T07:06:28;3.17;;;1.00;;
54201;SDS011;40108;53.152;5.844;2022-09-03T07:08:56;4.18;;;1.00;;
54201;SDS011;40108;53.152;5.844;2022-09-03T07:11:29;7.80;;;1.20;;
54201;SDS011;40108;53.152;5.844;2022-09-03T07:13:57;4.32;;;0.95;;
54201;SDS011;40108;53.152;5.844;2022-09-03T07:16:28;4.30;;;1.02;;
54201;SDS011;40108;53.152;5.844;2022-09-03T07:18:56;1.58;;;0.82;;
54201;SDS011;40108;53.152;5.844;2022-09-03T07:21:26;5.32;;;1.10;;
54201;SDS011;40108;53.152;5.844;2022-09-03T07:23:54;4.28;;;1.08;;
54201;SDS011;40108;53.152;5.844;2022-09-03T07:26:30;2.58;;;0.80;;
54201;SDS011;40108;53.152;5.844;2022-09-03T07:29:04;2.40;;;1.10;;
54201;SDS011;40108;53.152;5.844;2022-09-03T07:31:39;2.53;;;0.90;;
54201;SDS011;40108;53.152;5.844;2022-09-03T07:34:07;2.58;;;0.80;;
54201;SDS011;40108;53.152;5.844;2022-09-03T07:36:35;2.05;;;0.90;;
54201;SDS011;40108;53.152;5.844;2022-09-03T07:39:03;1.20;;;0.70;;
54201;SDS011;40108;53.152;5.844;2022-09-03T07:41:29;2.88;;;0.90;;
54201;SDS011;40108;53.152;5.844;2022-09-03T07:43:57;3.17;;;1.00;;
54201;SDS011;40108;53.152;5.844;2022-09-03T07:46:24;2.75;;;0.88;;
54201;SDS011;40108;53.152;5.844;2022-09-03T07:48:52;1.67;;;0.80;;
54201;SDS011;40108;53.152;5.844;2022-09-03T07:51:20;4.63;;;1.10;;
54201;SDS011;40108;53.152;5.844;2022-09-03T07:53:51;3.22;;;1.25;;
54201;SDS011;40108;53.152;5.844;2022-09-03T07:56:18;3.17;;;1.05;;
54201;SDS011;40108;53.152;5.844;2022-09-03T07:58:45;4.85;;;0.95;;
54201;SDS011;40108;53.152;5.844;2022-09-03T08:01:12;3.08;;;0.77;;
54201;SDS011;40108;53.152;5.844;2022-09-03T08:03:43;5.80;;;1.00;;
54201;SDS011;40108;53.152;5.844;2022-09-03T08:06:11;3.85;;;0.80;;
54201;SDS011;40108;53.152;5.844;2022-09-03T08:08:37;3.80;;;0.90;;
54201;SDS011;40108;53.152;5.844;2022-09-03T08:11:14;0.82;;;0.82;;
54201;SDS011;40108;53.152;5.844;2022-09-03T08:13:42;2.13;;;0.95;;
54201;SDS011;40108;53.152;5.844;2022-09-03T08:16:15;2.53;;;0.90;;
54201;SDS011;40108;53.152;5.844;2022-09-03T08:18:45;3.28;;;0.90;;
54201;SDS011;40108;53.152;5.844;2022-09-03T08:21:12;3.70;;;0.95;;
54201;SDS011;40108;53.152;5.844;2022-09-03T08:23:43;2.60;;;0.75;;
54201;SDS011;40108;53.152;5.844;2022-09-03T08:26:11;3.95;;;1.00;;
54201;SDS011;40108;53.152;5.844;2022-09-03T08:28:38;2.30;;;1.00;;
54201;SDS011;40108;53.152;5.844;2022-09-03T08:31:05;2.05;;;0.90;;
54201;SDS011;40108;53.152;5.844;2022-09-03T08:33:32;1.55;;;0.85;;
54201;SDS011;40108;53.152;5.844;2022-09-03T08:36:07;5.35;;;1.00;;
54201;SDS011;40108;53.152;5.844;2022-09-03T08:38:33;2.65;;;0.90;;
54201;SDS011;40108;53.152;5.844;2022-09-03T08:41:05;3.63;;;0.85;;
54201;SDS011;40108;53.152;5.844;2022-09-03T08:43:50;2.50;;;0.93;;
54201;SDS011;40108;53.152;5.844;2022-09-03T08:54:54;2.80;;;0.80;;
54201;SDS011;40108;53.152;5.844;2022-09-03T08:57:26;1.77;;;0.77;;
54201;SDS011;40108;53.152;5.844;2022-09-03T08:59:56;5.20;;;0.93;;
54201;SDS011;40108;53.152;5.844;2022-09-03T09:02:47;7.43;;;0.88;;
54201;SDS011;40108;53.152;5.844;2022-09-03T09:08:23;3.00;;;0.80;;
54201;SDS011;40108;53.152;5.844;2022-09-03T09:11:07;6.45;;;0.80;;
54201;SDS011;40108;53.152;5.844;2022-09-03T09:14:32;3.17;;;0.90;;
54201;SDS011;40108;53.152;5.844;2022-09-03T09:19:45;2.05;;;0.60;;
54201;SDS011;40108;53.152;5.844;2022-09-03T09:22:29;2.47;;;0.80;;
54201;SDS011;40108;53.152;5.844;2022-09-03T09:25:00;3.53;;;0.82;;
54201;SDS011;40108;53.152;5.844;2022-09-03T09:27:32;4.05;;;0.90;;
54201;SDS011;40108;53.152;5.844;2022-09-03T09:29:58;2.75;;;0.98;;
54201;SDS011;40108;53.152;5.844;2022-09-03T09:32:28;5.45;;;1.00;;
54201;SDS011;40108;53.152;5.844;2022-09-03T09:34:55;5.35;;;1.05;;
54201;SDS011;40108;53.152;5.844;2022-09-03T09:37:20;2.60;;;0.90;;
54201;SDS011;40108;53.152;5.844;2022-09-03T09:39:53;4.55;;;0.75;;
54201;SDS011;40108;53.152;5.844;2022-09-03T09:42:24;1.77;;;1.00;;
54201;SDS011;40108;53.152;5.844;2022-09-03T09:44:51;2.47;;;0.60;;
54201;SDS011;40108;53.152;5.844;2022-09-03T09:47:21;5.05;;;1.05;;
54201;SDS011;40108;53.152;5.844;2022-09-03T09:49:52;7.88;;;1.15;;
54201;SDS011;40108;53.152;5.844;2022-09-03T09:52:23;5.40;;;0.77;;
54201;SDS011;40108;53.152;5.844;2022-09-03T09:54:51;4.78;;;1.17;;
54201;SDS011;40108;53.152;5.844;2022-09-03T09:57:29;4.60;;;1.05;;
54201;SDS011;40108;53.152;5.844;2022-09-03T10:00:05;6.53;;;0.73;;
54201;SDS011;40108;53.152;5.844;2022-09-03T10:02:37;4.45;;;0.90;;
54201;SDS011;40108;53.152;5.844;2022-09-03T10:05:13;1.52;;;0.90;;
54201;SDS011;40108;53.152;5.844;2022-09-03T10:07:57;3.03;;;0.90;;
54201;SDS011;40108;53.152;5.844;2022-09-03T10:10:32;3.65;;;1.00;;
54201;SDS011;40108;53.152;5.844;2022-09-03T10:13:05;7.90;;;0.80;;
54201;SDS011;40108;53.152;5.844;2022-09-03T10:21:17;5.07;;;1.00;;
54201;SDS011;40108;53.152;5.844;2022-09-03T10:26:39;5.88;;;0.82;;
54201;SDS011;40108;53.152;5.844;2022-09-03T10:29:07;8.93;;;1.02;;
54201;SDS011;40108;53.152;5.844;2022-09-03T10:34:27;9.20;;;0.90;;
54201;SDS011;40108;53.152;5.844;2022-09-03T10:39:38;5.63;;;0.88;;
54201;SDS011;40108;53.152;5.844;2022-09-03T10:45:02;4.97;;;0.80;;
54201;SDS011;40108;53.152;5.844;2022-09-03T10:50:47;3.90;;;0.85;;
54201;SDS011;40108;53.152;5.844;2022-09-03T10:53:38;3.45;;;0.75;;
54201;SDS011;40108;53.152;5.844;2022-09-03T10:56:16;1.73;;;0.88;;
54201;SDS011;40108;53.152;5.844;2022-09-03T10:59:06;5.40;;;1.10;;
54201;SDS011;40108;53.152;5.844;2022-09-03T11:05:00;5.20;;;0.90;;
54201;SDS011;40108;53.152;5.844;2022-09-03T11:07:28;4.50;;;0.70;;
54201;SDS011;40108;53.152;5.844;2022-09-03T11:12:54;2.53;;;0.73;;
54201;SDS011;40108;53.152;5.844;2022-09-03T11:15:35;6.75;;;0.98;;
54201;SDS011;40108;53.152;5.844;2022-09-03T11:20:44;4.65;;;0.70;;
54201;SDS011;40108;53.152;5.844;2022-09-03T11:23:13;2.20;;;0.90;;
54201;SDS011;40108;53.152;5.844;2022-09-03T11:25:42;4.50;;;0.55;;
54201;SDS011;40108;53.152;5.844;2022-09-03T11:31:20;4.35;;;0.63;;
54201;SDS011;40108;53.152;5.844;2022-09-03T11:33:55;3.50;;;0.90;;
54201;SDS011;40108;53.152;5.844;2022-09-03T11:36:43;1.00;;;0.60;;
54201;SDS011;40108;53.152;5.844;2022-09-03T11:39:23;0.68;;;0.60;;
54201;SDS011;40108;53.152;5.844;2022-09-03T11:41:59;4.38;;;0.57;;
54201;SDS011;40108;53.152;5.844;2022-09-03T11:44:36;3.75;;;0.90;;
54201;SDS011;40108;53.152;5.844;2022-09-03T11:47:36;6.25;;;0.90;;
54201;SDS011;40108;53.152;5.844;2022-09-03T11:50:06;0.77;;;0.63;;
54201;SDS011;40108;53.152;5.844;2022-09-03T11:52:47;4.45;;;0.88;;
54201;SDS011;40108;53.152;5.844;2022-09-03T11:55:29;3.97;;;0.65;;
54201;SDS011;40108;53.152;5.844;2022-09-03T11:57:58;3.80;;;0.68;;
54201;SDS011;40108;53.152;5.844;2022-09-03T12:00:38;5.28;;;0.68;;
54201;SDS011;40108;53.152;5.844;2022-09-03T12:03:11;3.08;;;0.47;;
54201;SDS011;40108;53.152;5.844;2022-09-03T12:05:48;2.75;;;0.63;;
54201;SDS011;40108;53.152;5.844;2022-09-03T12:08:38;4.45;;;0.70;;
54201;SDS011;40108;53.152;5.844;2022-09-03T12:11:31;4.38;;;0.70;;
54201;SDS011;40108;53.152;5.844;2022-09-03T12:14:12;3.63;;;0.60;;
54201;SDS011;40108;53.152;5.844;2022-09-03T12:16:50;3.60;;;0.63;;
54201;SDS011;40108;53.152;5.844;2022-09-03T12:22:29;4.35;;;0.70;;
54201;SDS011;40108;53.152;5.844;2022-09-03T12:25:12;2.95;;;0.60;;
54201;SDS011;40108;53.152;5.844;2022-09-03T12:27:43;4.35;;;0.80;;
54201;SDS011;40108;53.152;5.844;2022-09-03T12:30:17;3.38;;;0.70;;
54201;SDS011;40108;53.152;5.844;2022-09-03T12:32:47;3.47;;;0.73;;
54201;SDS011;40108;53.152;5.844;2022-09-03T12:35:19;1.77;;;0.60;;
54201;SDS011;40108;53.152;5.844;2022-09-03T12:37:46;2.22;;;0.52;;
54201;SDS011;40108;53.152;5.844;2022-09-03T12:40:23;3.15;;;0.70;;
54201;SDS011;40108;53.152;5.844;2022-09-03T12:42:50;2.72;;;0.80;;
54201;SDS011;40108;53.152;5.844;2022-09-03T12:45:24;3.30;;;0.70;;
54201;SDS011;40108;53.152;5.844;2022-09-03T12:47:51;3.75;;;0.70;;
54201;SDS011;40108;53.152;5.844;2022-09-03T12:50:23;3.70;;;0.60;;
54201;SDS011;40108;53.152;5.844;2022-09-03T12:52:53;5.10;;;0.60;;
54201;SDS011;40108;53.152;5.844;2022-09-03T12:58:17;2.83;;;0.60;;
54201;SDS011;40108;53.152;5.844;2022-09-03T13:00:56;3.50;;;0.77;;
54201;SDS011;40108;53.152;5.844;2022-09-03T13:03:44;2.75;;;0.70;;
54201;SDS011;40108;53.152;5.844;2022-09-03T13:06:22;3.45;;;0.80;;
54201;SDS011;40108;53.152;5.844;2022-09-03T13:08:56;2.60;;;0.80;;
54201;SDS011;40108;53.152;5.844;2022-09-03T13:11:25;2.42;;;0.70;;
54201;SDS011;40108;53.152;5.844;2022-09-03T13:14:05;1.02;;;0.80;;
54201;SDS011;40108;53.152;5.844;2022-09-03T13:32:35;1.35;;;0.80;;
54201;SDS011;40108;53.152;5.844;2022-09-03T13:35:26;2.85;;;0.80;;
54201;SDS011;40108;53.152;5.844;2022-09-03T13:40:57;3.90;;;0.70;;
54201;SDS011;40108;53.152;5.844;2022-09-03T13:46:20;2.85;;;0.82;;
54201;SDS011;40108;53.152;5.844;2022-09-03T13:48:50;0.70;;;0.40;;
54201;SDS011;40108;53.152;5.844;2022-09-03T13:51:57;3.58;;;0.60;;
54201;SDS011;40108;53.152;5.844;2022-09-03T13:54:29;4.05;;;1.00;;
54201;SDS011;40108;53.152;5.844;2022-09-03T13:57:18;3.33;;;0.77;;
54201;SDS011;40108;53.152;5.844;2022-09-03T13:59:55;1.98;;;0.80;;
54201;SDS011;40108;53.152;5.844;2022-09-03T14:08:19;1.00;;;0.60;;
54201;SDS011;40108;53.152;5.844;2022-09-03T14:13:30;1.42;;;0.65;;
54201;SDS011;40108;53.152;5.844;2022-09-03T14:16:34;2.22;;;1.33;;
54201;SDS011;40108;53.152;5.844;2022-09-03T14:19:11;3.20;;;0.70;;
54201;SDS011;40108;53.152;5.844;2022-09-03T14:22:10;1.38;;;0.57;;
54201;SDS011;40108;53.152;5.844;2022-09-03T14:27:24;1.88;;;0.60;;
54201;SDS011;40108;53.152;5.844;2022-09-03T14:30:02;4.82;;;0.70;;
54201;SDS011;40108;53.152;5.844;2022-09-03T14:40:45;3.90;;;0.70;;
54201;SDS011;40108;53.152;5.844;2022-09-03T14:43:51;5.68;;;0.80;;
54201;SDS011;40108;53.152;5.844;2022-09-03T14:50:01;1.73;;;0.70;;
54201;SDS011;40108;53.152;5.844;2022-09-03T14:52:41;6.07;;;0.80;;
54201;SDS011;40108;53.152;5.844;2022-09-03T15:01:09;2.70;;;0.70;;
54201;SDS011;40108;53.152;5.844;2022-09-03T15:09:34;1.75;;;0.63;;
54201;SDS011;40108;53.152;5.844;2022-09-03T15:12:24;3.08;;;0.73;;
54201;SDS011;40108;53.152;5.844;2022-09-03T15:15:00;3.85;;;0.70;;
54201;SDS011;40108;53.152;5.844;2022-09-03T15:17:43;5.78;;;0.75;;
54201;SDS011;40108;53.152;5.844;2022-09-03T15:20:16;5.30;;;0.82;;
54201;SDS011;40108;53.152;5.844;2022-09-03T15:26:04;2.90;;;0.70;;
54201;SDS011;40108;53.152;5.844;2022-09-03T15:28:45;6.38;;;0.90;;
54201;SDS011;40108;53.152;5.844;2022-09-03T15:34:14;91.57;;;84.03;;
54201;SDS011;40108;53.152;5.844;2022-09-03T15:36:48;225.80;;;206.23;;
54201;SDS011;40108;53.152;5.844;2022-09-03T15:39:21;117.43;;;106.55;;
54201;SDS011;40108;53.152;5.844;2022-09-03T15:42:00;5.18;;;2.67;;
54201;SDS011;40108;53.152;5.844;2022-09-03T15:44:47;2.78;;;1.00;;
54201;SDS011;40108;53.152;5.844;2022-09-03T15:50:09;3.42;;;0.75;;
54201;SDS011;40108;53.152;5.844;2022-09-03T15:53:01;3.63;;;0.80;;
54201;SDS011;40108;53.152;5.844;2022-09-03T15:55:59;2.53;;;0.68;;
54201;SDS011;40108;53.152;5.844;2022-09-03T15:58:33;4.07;;;0.95;;
54201;SDS011;40108;53.152;5.844;2022-09-03T16:01:03;5.65;;;0.93;;
54201;SDS011;40108;53.152;5.844;2022-09-03T16:03:38;4.13;;;1.00;;
54201;SDS011;40108;53.152;5.844;2022-09-03T16:09:21;5.15;;;0.93;;
54201;SDS011;40108;53.152;5.844;2022-09-03T16:12:07;2.10;;;0.77;;
54201;SDS011;40108;53.152;5.844;2022-09-03T16:17:32;4.72;;;0.68;;
54201;SDS011;40108;53.152;5.844;2022-09-03T16:20:14;2.90;;;0.90;;
54201;SDS011;40108;53.152;5.844;2022-09-03T16:22:48;8.02;;;3.35;;
54201;SDS011;40108;53.152;5.844;2022-09-03T16:25:23;3.83;;;0.60;;
54201;SDS011;40108;53.152;5.844;2022-09-03T16:46:34;2.08;;;0.98;;
54201;SDS011;40108;53.152;5.844;2022-09-03T17:00:15;6.50;;;0.98;;
54201;SDS011;40108;53.152;5.844;2022-09-03T17:05:47;3.72;;;0.80;;
54201;SDS011;40108;53.152;5.844;2022-09-03T17:24:56;3.50;;;1.10;;
54201;SDS011;40108;53.152;5.844;2022-09-03T17:30:19;3.03;;;1.02;;
54201;SDS011;40108;53.152;5.844;2022-09-03T17:44:22;7.45;;;2.28;;
54201;SDS011;40108;53.152;5.844;2022-09-03T17:49:50;3.33;;;1.00;;
54201;SDS011;40108;53.152;5.844;2022-09-03T17:53:11;6.85;;;2.85;;
54201;SDS011;40108;53.152;5.844;2022-09-03T18:01:34;4.32;;;1.05;;
54201;SDS011;40108;53.152;5.844;2022-09-03T18:06:25;4.50;;;0.98;;
54201;SDS011;40108;53.152;5.844;2022-09-03T18:09:17;4.25;;;1.30;;
54201;SDS011;40108;53.152;5.844;2022-09-03T18:12:02;3.47;;;0.90;;
54201;SDS011;40108;53.152;5.844;2022-09-03T18:14:43;3.78;;;1.00;;
54201;SDS011;40108;53.152;5.844;2022-09-03T18:17:26;5.32;;;1.13;;
54201;SDS011;40108;53.152;5.844;2022-09-03T18:20:04;3.78;;;1.15;;
54201;SDS011;40108;53.152;5.844;2022-09-03T18:25:53;2.25;;;0.90;;
54201;SDS011;40108;53.152;5.844;2022-09-03T18:28:52;3.95;;;1.10;;
54201;SDS011;40108;53.152;5.844;2022-09-03T18:31:43;4.97;;;1.23;;
54201;SDS011;40108;53.152;5.844;2022-09-03T18:34:31;5.00;;;0.93;;
54201;SDS011;40108;53.152;5.844;2022-09-03T18:37:18;5.55;;;1.17;;
54201;SDS011;40108;53.152;5.844;2022-09-03T18:40:06;4.15;;;1.38;;
54201;SDS011;40108;53.152;5.844;2022-09-03T18:43:07;6.50;;;1.17;;
54201;SDS011;40108;53.152;5.844;2022-09-03T18:46:20;4.63;;;1.00;;
54201;SDS011;40108;53.152;5.844;2022-09-03T18:52:17;4.75;;;1.20;;
54201;SDS011;40108;53.152;5.844;2022-09-03T19:03:47;2.92;;;1.00;;
54201;SDS011;40108;53.152;5.844;2022-09-03T19:19:26;3.50;;;0.95;;
54201;SDS011;40108;53.152;5.844;2022-09-03T19:25:12;9.40;;;1.23;;
54201;SDS011;40108;53.152;5.844;2022-09-03T19:46:13;5.30;;;1.80;;
54201;SDS011;40108;53.152;5.844;2022-09-03T19:49:23;5.20;;;1.30;;
54201;SDS011;40108;53.152;5.844;2022-09-03T19:52:35;4.00;;;2.33;;
54201;SDS011;40108;53.152;5.844;2022-09-03T19:55:24;6.40;;;1.60;;
54201;SDS011;40108;53.152;5.844;2022-09-03T19:58:13;8.45;;;1.63;;
54201;SDS011;40108;53.152;5.844;2022-09-03T20:01:02;7.00;;;1.23;;
54201;SDS011;40108;53.152;5.844;2022-09-03T20:03:46;6.80;;;1.60;;
54201;SDS011;40108;53.152;5.844;2022-09-03T20:06:32;7.20;;;1.52;;
54201;SDS011;40108;53.152;5.844;2022-09-03T20:09:19;5.47;;;1.33;;
54201;SDS011;40108;53.152;5.844;2022-09-03T20:12:08;5.13;;;1.42;;
54201;SDS011;40108;53.152;5.844;2022-09-03T20:14:37;5.75;;;1.70;;
54201;SDS011;40108;53.152;5.844;2022-09-03T20:17:06;3.95;;;1.40;;